createdAt,value
2022-11-12T00:02:16.341Z,13.14
2022-11-12T00:05:02.054Z,12.97
2022-11-12T00:07:47.859Z,13.06
2022-11-12T00:10:33.623Z,12.90
2022-11-12T00:13:19.365Z,12.94
2022-11-12T00:16:05.828Z,12.70
2022-11-12T00:18:51.270Z,12.78
2022-11-12T00:21:37.044Z,13.01
2022-11-12T00:24:22.447Z,12.87
2022-11-12T00:27:08.111Z,12.95
2022-11-12T00:29:53.965Z,12.73
2022-11-12T00:32:39.652Z,12.75
2022-11-12T00:35:25.468Z,12.98
2022-11-12T00:38:11.343Z,12.94
2022-11-12T00:40:59.467Z,12.82
2022-11-12T00:43:44.855Z,12.91
2022-11-12T00:46:30.850Z,13.03
2022-11-12T00:49:16.825Z,12.83
2022-11-12T00:52:02.582Z,12.71
2022-11-12T00:54:48.034Z,12.87
2022-11-12T00:57:33.711Z,13.04
2022-11-12T01:00:19.382Z,12.95
2022-11-12T01:03:04.943Z,12.79
2022-11-12T01:05:50.529Z,12.88
2022-11-12T01:08:36.493Z,12.94
2022-11-12T01:11:23.559Z,12.90
2022-11-12T01:14:09.285Z,12.70
2022-11-12T01:16:54.990Z,12.73
2022-11-12T01:19:40.709Z,12.56
2022-11-12T01:22:26.309Z,12.63
2022-11-12T01:25:12.028Z,12.68
2022-11-12T01:27:58.290Z,12.63
2022-11-12T01:30:43.611Z,12.63
2022-11-12T01:33:29.248Z,12.42
2022-11-12T01:36:15.837Z,12.48
2022-11-12T01:39:01.615Z,12.88
2022-11-12T01:41:47.470Z,12.64
2022-11-12T01:44:32.992Z,12.78
2022-11-12T01:47:18.553Z,13.02
2022-11-12T01:50:06.978Z,12.87
2022-11-12T01:52:54.669Z,12.81
2022-11-12T01:55:40.455Z,13.15
2022-11-12T01:58:27.172Z,13.26
2022-11-12T02:01:13.162Z,13.17
2022-11-12T02:03:59.244Z,13.44
2022-11-12T02:06:45.073Z,13.60
2022-11-12T02:09:30.997Z,13.71
2022-11-12T02:12:35.312Z,13.68
2022-11-12T02:15:21.135Z,13.24
2022-11-12T02:18:06.799Z,12.76
2022-11-12T02:20:55.983Z,13.08
2022-11-12T02:23:41.557Z,13.05
2022-11-12T02:26:27.173Z,12.79
2022-11-12T02:29:13.043Z,12.99
2022-11-12T02:31:58.741Z,12.96
2022-11-12T02:34:44.253Z,12.88
2022-11-12T02:37:30.119Z,13.06
2022-11-12T02:40:15.799Z,12.98
2022-11-12T02:43:01.517Z,12.85
2022-11-12T02:45:47.428Z,12.80
2022-11-12T02:48:33.243Z,12.76
2022-11-12T02:51:19.013Z,12.76
2022-11-12T02:54:04.747Z,12.66
2022-11-12T02:56:50.304Z,12.57
2022-11-12T02:59:36.237Z,12.52
2022-11-12T03:02:21.969Z,12.54
2022-11-12T03:05:07.812Z,12.52
2022-11-12T03:08:03.683Z,12.80
2022-11-12T03:10:49.346Z,12.93
2022-11-12T03:13:35.310Z,12.87
2022-11-12T03:16:21.129Z,12.97
2022-11-12T03:19:07.022Z,13.04
2022-11-12T03:21:52.704Z,13.08
2022-11-12T03:24:38.558Z,12.91
2022-11-12T03:27:24.123Z,13.02
2022-11-12T03:30:10.217Z,13.13
2022-11-12T03:32:57.047Z,13.13
2022-11-12T03:35:43.111Z,13.12
2022-11-12T03:38:29.394Z,13.19
2022-11-12T03:41:15.399Z,13.20
2022-11-12T03:44:00.916Z,13.21
2022-11-12T03:46:46.880Z,13.11
2022-11-12T03:49:32.363Z,13.01
2022-11-12T03:52:18.226Z,13.10
2022-11-12T03:55:04.509Z,12.93
2022-11-12T03:57:50.083Z,12.89
2022-11-12T04:00:35.904Z,12.81
2022-11-12T04:03:21.779Z,12.96
2022-11-12T04:06:25.824Z,13.01
2022-11-12T04:09:11.557Z,12.88
2022-11-12T04:12:17.070Z,13.03
2022-11-12T04:15:02.800Z,13.14
2022-11-12T04:18:06.879Z,13.14
2022-11-12T04:21:11.478Z,13.10
2022-11-12T04:23:57.315Z,12.67
2022-11-12T04:26:43.102Z,12.43
2022-11-12T04:29:47.580Z,12.47
2022-11-12T04:32:34.574Z,12.77
2022-11-12T04:35:20.602Z,12.70
2022-11-12T04:38:06.473Z,12.73
2022-11-12T04:41:11.010Z,12.63
2022-11-12T04:44:15.556Z,12.78
2022-11-12T04:47:01.159Z,12.73
2022-11-12T04:49:46.739Z,12.79
2022-11-12T04:52:32.417Z,12.83
2022-11-12T04:55:17.992Z,12.64
2022-11-12T04:58:03.749Z,12.67
2022-11-12T05:00:49.693Z,12.75
2022-11-12T05:03:35.459Z,12.45
2022-11-12T05:06:39.549Z,11.93
2022-11-12T05:09:26.418Z,11.97
2022-11-12T05:12:12.027Z,11.89
2022-11-12T05:14:57.771Z,12.07
2022-11-12T05:17:43.982Z,12.12
2022-11-12T05:20:29.648Z,12.06
2022-11-12T05:23:15.102Z,12.02
2022-11-12T05:26:00.887Z,12.08
2022-11-12T05:28:46.449Z,12.11
2022-11-12T05:31:32.442Z,12.11
2022-11-12T05:34:22.758Z,12.10
2022-11-12T05:37:09.419Z,12.09
2022-11-12T05:39:54.835Z,12.19
2022-11-12T05:42:40.557Z,12.14
2022-11-12T05:45:26.069Z,12.16
2022-11-12T05:48:12.361Z,12.20
2022-11-12T05:51:12.571Z,12.10
2022-11-12T05:54:00.925Z,11.99
2022-11-12T05:56:46.740Z,11.98
2022-11-12T05:59:32.317Z,11.93
2022-11-12T06:02:18.173Z,11.94
2022-11-12T06:05:04.329Z,11.93
2022-11-12T06:07:50.014Z,11.81
2022-11-12T06:10:35.650Z,11.86
2022-11-12T06:13:22.338Z,11.75
2022-11-12T06:16:08.226Z,11.68
2022-11-12T06:18:53.874Z,12.00
2022-11-12T06:21:39.643Z,12.10
2022-11-12T06:24:27.539Z,12.06
2022-11-12T06:27:16.658Z,11.91
2022-11-12T06:30:02.696Z,12.01
2022-11-12T06:32:48.786Z,11.96
2022-11-12T06:35:35.694Z,12.01
2022-11-12T06:38:24.366Z,12.18
2022-11-12T06:41:10.579Z,12.12
2022-11-12T06:43:56.193Z,11.82
2022-11-12T06:46:44.272Z,12.03
2022-11-12T06:49:30.115Z,12.24
2022-11-12T06:52:16.790Z,12.27
2022-11-12T06:55:02.845Z,12.35
2022-11-12T06:57:51.422Z,12.29
2022-11-12T07:00:36.921Z,12.32
2022-11-12T07:03:22.779Z,12.33
2022-11-12T07:06:09.606Z,12.33
2022-11-12T07:08:55.091Z,12.34
2022-11-12T07:11:40.701Z,12.34
2022-11-12T07:14:26.529Z,12.54
2022-11-12T07:17:12.080Z,12.63
2022-11-12T07:20:02.365Z,12.95
2022-11-12T07:22:49.329Z,12.94
2022-11-12T07:25:35.174Z,13.22
2022-11-12T07:28:21.373Z,13.30
2022-11-12T07:31:08.189Z,13.40
2022-11-12T07:33:54.029Z,13.63
2022-11-12T07:36:39.977Z,13.89
2022-11-12T07:39:25.741Z,13.81
2022-11-12T07:42:11.621Z,13.90
2022-11-12T07:44:57.066Z,13.67
2022-11-12T07:47:42.880Z,13.88
2022-11-12T07:50:28.759Z,14.19
2022-11-12T07:53:14.517Z,14.50
2022-11-12T07:56:00.976Z,14.75
2022-11-12T07:58:46.893Z,15.27
2022-11-12T08:01:33.689Z,15.72
2022-11-12T08:04:19.380Z,16.06
2022-11-12T08:07:05.297Z,16.24
2022-11-12T08:09:50.866Z,16.74
2022-11-12T08:12:36.686Z,17.02
2022-11-12T08:15:22.439Z,16.50
2022-11-12T08:18:08.235Z,16.97
2022-11-12T08:20:59.330Z,16.94
2022-11-12T08:23:45.132Z,17.04
2022-11-12T08:26:30.718Z,17.02
2022-11-12T08:29:16.538Z,17.10
2022-11-12T08:32:02.297Z,16.64
2022-11-12T08:34:48.114Z,16.93
2022-11-12T08:37:33.891Z,17.36
2022-11-12T08:40:19.767Z,17.25
2022-11-12T08:43:06.566Z,17.51
2022-11-12T08:45:52.392Z,17.31
2022-11-12T08:48:40.127Z,15.77
2022-11-12T08:51:26.147Z,17.31
2022-11-12T08:54:11.975Z,17.41
2022-11-12T08:56:57.856Z,17.33
2022-11-12T08:59:43.724Z,16.99
2022-11-12T09:02:29.610Z,17.42
2022-11-12T09:05:15.345Z,17.03
2022-11-12T09:08:01.814Z,16.67
2022-11-12T09:10:48.068Z,16.36
2022-11-12T09:13:33.924Z,15.05
2022-11-12T09:16:21.334Z,15.51
2022-11-12T09:19:06.965Z,15.37
2022-11-12T09:21:52.538Z,15.69
2022-11-12T09:24:38.255Z,15.21
2022-11-12T09:27:26.357Z,15.63
2022-11-12T09:30:12.431Z,15.48
2022-11-12T09:32:58.490Z,14.56
2022-11-12T09:35:45.580Z,14.43
2022-11-12T09:38:31.580Z,14.53
2022-11-12T09:41:20.165Z,15.01
2022-11-12T09:44:09.595Z,14.78
2022-11-12T09:46:57.352Z,15.31
2022-11-12T09:49:50.189Z,14.29
2022-11-12T09:52:35.836Z,14.68
2022-11-12T09:55:21.712Z,15.03
2022-11-12T09:58:11.478Z,14.89
2022-11-12T10:01:01.532Z,14.61
2022-11-12T10:03:47.371Z,13.81
2022-11-12T10:06:34.720Z,14.20
2022-11-12T10:09:22.833Z,13.66
2022-11-12T10:12:33.508Z,14.80
2022-11-12T10:15:58.034Z,15.02
2022-11-12T10:18:49.743Z,14.83
2022-11-12T10:21:41.454Z,14.92
2022-11-12T10:24:28.071Z,15.23
2022-11-12T10:27:15.849Z,15.44
2022-11-12T10:30:05.475Z,15.83
2022-11-12T10:32:51.570Z,15.75
2022-11-12T10:35:37.236Z,16.42
2022-11-12T10:38:25.859Z,16.47
2022-11-12T10:41:22.630Z,16.24
2022-11-12T10:44:10.502Z,16.47
2022-11-12T10:47:13.065Z,16.30
2022-11-12T10:50:19.655Z,16.77
2022-11-12T10:53:06.861Z,16.76
2022-11-12T10:55:59.775Z,17.53
2022-11-12T10:58:45.556Z,17.17
2022-11-12T11:01:35.477Z,16.84
2022-11-12T11:04:24.393Z,17.40
2022-11-12T11:07:20.563Z,17.49
2022-11-12T11:10:12.469Z,16.75
2022-11-12T11:13:36.931Z,17.32
2022-11-12T11:16:26.143Z,16.56
2022-11-12T11:19:12.171Z,16.20
2022-11-12T11:21:59.014Z,16.41
2022-11-12T11:24:48.616Z,16.82
2022-11-12T11:27:36.935Z,16.65
2022-11-12T11:30:22.460Z,16.79
2022-11-12T11:33:20.645Z,17.00
2022-11-12T11:36:24.918Z,16.90
2022-11-12T11:39:20.222Z,16.68
2022-11-12T11:42:08.440Z,16.92
2022-11-12T11:45:04.805Z,17.37
2022-11-12T11:48:01.632Z,16.12
2022-11-12T11:51:25.883Z,16.79
2022-11-12T11:54:30.373Z,16.48
2022-11-12T11:57:17.064Z,16.92
2022-11-12T12:00:02.642Z,16.62
2022-11-12T12:03:06.878Z,17.22
2022-11-12T12:06:09.793Z,17.06
2022-11-12T12:08:55.441Z,16.49
2022-11-12T12:12:00.696Z,16.67
2022-11-12T12:14:49.159Z,16.85
2022-11-12T12:17:39.164Z,17.40
2022-11-12T12:20:33.887Z,16.92
2022-11-12T12:23:27.154Z,17.09
2022-11-12T12:26:33.273Z,16.35
2022-11-12T12:29:25.191Z,16.67
2022-11-12T12:32:12.105Z,16.98
2022-11-12T12:35:18.432Z,17.22
2022-11-12T12:38:22.779Z,16.77
2022-11-12T12:41:14.318Z,16.33
2022-11-12T12:44:03.754Z,16.26
2022-11-12T12:46:51.215Z,16.40
2022-11-12T12:49:36.997Z,16.16
2022-11-12T12:52:22.852Z,16.68
2022-11-12T12:55:15.983Z,16.57
2022-11-12T12:58:01.825Z,16.87
2022-11-12T13:00:49.195Z,16.62
2022-11-12T13:03:47.393Z,16.19
2022-11-12T13:06:37.833Z,16.77
2022-11-12T13:09:24.963Z,16.34
2022-11-12T13:12:10.781Z,16.61
2022-11-12T13:15:28.975Z,16.75
2022-11-12T13:18:33.273Z,16.18
2022-11-12T13:21:19.744Z,16.65
2022-11-12T13:24:09.104Z,16.97
2022-11-12T13:26:56.617Z,16.71
2022-11-12T13:29:43.055Z,16.79
2022-11-12T13:32:28.662Z,16.90
2022-11-12T13:35:17.055Z,16.57
2022-11-12T13:38:08.582Z,16.83
2022-11-12T13:40:56.900Z,16.62
2022-11-12T13:43:43.211Z,17.31
2022-11-12T13:46:32.115Z,17.19
2022-11-12T13:49:17.687Z,16.94
2022-11-12T13:52:05.653Z,16.26
2022-11-12T13:55:01.330Z,17.16
2022-11-12T13:57:53.489Z,17.00
2022-11-12T14:00:39.140Z,17.14
2022-11-12T14:03:25.972Z,17.30
2022-11-12T14:06:15.788Z,17.08
2022-11-12T14:09:04.245Z,17.07
2022-11-12T14:12:08.145Z,17.17
2022-11-12T14:15:05.777Z,16.32
2022-11-12T14:18:00.190Z,16.63
2022-11-12T14:20:45.739Z,16.85
2022-11-12T14:23:31.367Z,17.02
2022-11-12T14:26:36.406Z,16.97
2022-11-12T14:29:21.958Z,16.95
2022-11-12T14:32:08.753Z,15.69
2022-11-12T14:34:54.573Z,15.92
2022-11-12T14:37:43.737Z,16.41
2022-11-12T14:40:30.853Z,16.41
2022-11-12T14:43:36.330Z,16.37
2022-11-12T14:46:26.738Z,15.74
2022-11-12T14:49:17.935Z,16.39
2022-11-12T14:52:10.135Z,16.02
2022-11-12T14:54:59.612Z,16.05
2022-11-12T14:57:45.211Z,16.18
2022-11-12T15:00:30.844Z,16.36
2022-11-12T15:03:20.425Z,16.79
2022-11-12T15:06:06.101Z,16.43
2022-11-12T15:08:58.495Z,16.79
2022-11-12T15:11:45.183Z,16.77
2022-11-12T15:14:30.832Z,16.28
2022-11-12T15:17:35.023Z,16.98
2022-11-12T15:20:20.565Z,17.16
2022-11-12T15:23:06.237Z,16.96
2022-11-12T15:25:59.144Z,17.07
2022-11-12T15:29:04.146Z,17.10
2022-11-12T15:31:50.617Z,17.14
2022-11-12T15:34:39.284Z,17.19
2022-11-12T15:37:28.051Z,17.37
2022-11-12T15:40:18.786Z,17.37
2022-11-12T15:43:10.514Z,17.37
2022-11-12T15:45:56.536Z,17.30
2022-11-12T15:48:42.043Z,17.21
2022-11-12T15:51:27.690Z,17.18
2022-11-12T15:54:13.211Z,16.96
2022-11-12T15:56:58.967Z,17.22
2022-11-12T15:59:44.924Z,17.22
2022-11-12T16:02:30.747Z,17.15
2022-11-12T16:05:17.229Z,17.23
2022-11-12T16:08:02.852Z,17.12
2022-11-12T16:10:48.732Z,17.15
2022-11-12T16:13:34.540Z,17.06
2022-11-12T16:16:19.953Z,17.23
2022-11-12T16:19:15.100Z,17.05
2022-11-12T16:22:01.280Z,17.22
2022-11-12T16:24:47.442Z,16.86
2022-11-12T16:27:32.957Z,16.62
2022-11-12T16:30:19.895Z,16.99
2022-11-12T16:33:05.722Z,16.79
2022-11-12T16:35:51.508Z,16.96
2022-11-12T16:38:37.222Z,16.95
2022-11-12T16:41:23.006Z,16.60
2022-11-12T16:44:08.900Z,16.81
2022-11-12T16:46:54.806Z,17.05
2022-11-12T16:49:42.767Z,16.92
2022-11-12T16:52:28.527Z,16.84
2022-11-12T16:55:14.667Z,17.09
2022-11-12T16:58:00.401Z,17.11
2022-11-12T17:00:46.762Z,17.14
2022-11-12T17:03:32.707Z,17.17
2022-11-12T17:06:18.903Z,17.04
2022-11-12T17:09:05.284Z,16.84
2022-11-12T17:11:50.714Z,16.98
2022-11-12T17:14:36.527Z,17.05
2022-11-12T17:17:22.530Z,17.05
2022-11-12T17:20:09.028Z,16.91
2022-11-12T17:22:54.653Z,16.98
2022-11-12T17:25:40.518Z,16.97
2022-11-12T17:28:27.634Z,16.97
2022-11-12T17:31:16.261Z,16.96
2022-11-12T17:34:03.959Z,16.96
2022-11-12T17:36:49.617Z,16.87
2022-11-12T17:39:35.397Z,16.95
2022-11-12T17:42:21.084Z,16.90
2022-11-12T17:45:07.056Z,16.87
2022-11-12T17:47:52.683Z,16.85
2022-11-12T17:50:38.129Z,16.81
2022-11-12T17:53:24.004Z,16.72
2022-11-12T17:56:11.350Z,16.59
2022-11-12T17:58:57.029Z,16.50
2022-11-12T18:01:42.763Z,16.44
2022-11-12T18:04:34.322Z,16.37
2022-11-12T18:07:23.045Z,16.30
2022-11-12T18:10:09.731Z,16.26
2022-11-12T18:12:56.027Z,16.13
2022-11-12T18:15:41.628Z,16.04
2022-11-12T18:18:28.099Z,16.03
2022-11-12T18:21:13.912Z,15.96
2022-11-12T18:24:00.486Z,15.92
2022-11-12T18:26:47.223Z,15.88
2022-11-12T18:29:32.788Z,15.88
2022-11-12T18:32:18.549Z,15.81
2022-11-12T18:35:05.034Z,15.80
2022-11-12T18:37:51.277Z,15.76
2022-11-12T18:40:37.056Z,15.74
2022-11-12T18:43:22.830Z,15.73
2022-11-12T18:46:09.275Z,15.61
2022-11-12T18:48:55.119Z,15.68
2022-11-12T18:51:41.443Z,15.25
2022-11-12T18:54:27.015Z,15.40
2022-11-12T18:57:12.729Z,15.37
2022-11-12T18:59:58.650Z,15.29
2022-11-12T19:02:44.492Z,15.16
2022-11-12T19:05:30.115Z,14.95
2022-11-12T19:08:16.095Z,15.21
2022-11-12T19:11:03.055Z,15.24
2022-11-12T19:13:52.327Z,15.34
2022-11-12T19:16:40.356Z,15.32
2022-11-12T19:19:25.950Z,15.18
2022-11-12T19:22:11.982Z,15.23
2022-11-12T19:24:57.625Z,15.25
2022-11-12T19:27:43.183Z,15.21
2022-11-12T19:30:29.186Z,15.04
2022-11-12T19:33:14.844Z,14.94
2022-11-12T19:36:06.185Z,15.09
2022-11-12T19:38:56.095Z,15.06
2022-11-12T19:41:42.275Z,14.70
2022-11-12T19:44:27.869Z,14.79
2022-11-12T19:47:13.646Z,14.57
2022-11-12T19:49:59.655Z,14.76
2022-11-12T19:52:45.519Z,14.90
2022-11-12T19:55:34.584Z,14.93
2022-11-12T19:58:24.813Z,14.96
2022-11-12T20:01:11.461Z,15.12
2022-11-12T20:03:57.702Z,15.05
2022-11-12T20:06:43.409Z,15.09
2022-11-12T20:09:29.420Z,15.12
2022-11-12T20:12:15.072Z,15.08
2022-11-12T20:15:00.801Z,15.12
2022-11-12T20:17:46.891Z,15.03
2022-11-12T20:20:32.437Z,14.91
2022-11-12T20:23:18.590Z,14.92
2022-11-12T20:26:04.836Z,14.86
2022-11-12T20:28:50.746Z,14.96
2022-11-12T20:31:37.994Z,14.89
2022-11-12T20:34:24.000Z,14.95
2022-11-12T20:37:10.161Z,14.96
2022-11-12T20:39:55.857Z,14.96
2022-11-12T20:42:41.672Z,14.98
2022-11-12T20:45:27.569Z,15.00
2022-11-12T20:48:13.360Z,15.02
2022-11-12T20:51:22.183Z,15.12
2022-11-12T20:54:09.055Z,15.12
2022-11-12T20:56:56.117Z,15.03
2022-11-12T20:59:42.069Z,14.82
2022-11-12T21:02:27.636Z,14.59
2022-11-12T21:05:13.539Z,14.54
2022-11-12T21:07:59.332Z,14.75
2022-11-12T21:10:48.505Z,14.69
2022-11-12T21:13:34.981Z,14.44
2022-11-12T21:16:20.908Z,14.51
2022-11-12T21:19:07.141Z,14.50
2022-11-12T21:21:53.374Z,14.59
2022-11-12T21:24:39.158Z,14.59
2022-11-12T21:27:24.770Z,14.38
2022-11-12T21:30:11.034Z,14.43
2022-11-12T21:32:56.866Z,14.40
2022-11-12T21:35:43.170Z,14.47
2022-11-12T21:38:29.405Z,14.26
2022-11-12T21:41:16.561Z,14.32
2022-11-12T21:44:02.104Z,14.37
2022-11-12T21:46:47.847Z,14.31
2022-11-12T21:49:33.535Z,14.28
2022-11-12T21:52:19.407Z,14.26
2022-11-12T21:55:05.665Z,14.25
2022-11-12T21:57:52.005Z,14.15
2022-11-12T22:00:42.336Z,14.13
2022-11-12T22:03:31.376Z,13.88
2022-11-12T22:06:17.302Z,13.44
2022-11-12T22:09:02.789Z,13.73
2022-11-12T22:11:48.680Z,13.85
2022-11-12T22:14:34.401Z,13.79
2022-11-12T22:17:20.310Z,13.75
2022-11-12T22:20:06.363Z,13.68
2022-11-12T22:22:52.590Z,13.56
2022-11-12T22:25:38.377Z,13.57
2022-11-12T22:28:24.436Z,13.64
2022-11-12T22:31:11.234Z,13.58
2022-11-12T22:33:58.174Z,13.65
2022-11-12T22:36:44.214Z,13.65
2022-11-12T22:39:29.787Z,13.71
2022-11-12T22:42:15.496Z,13.53
2022-11-12T22:45:01.369Z,13.57
2022-11-12T22:47:47.147Z,13.60
2022-11-12T22:50:32.963Z,13.56
2022-11-12T22:53:18.765Z,13.42
2022-11-12T22:56:05.324Z,13.32
2022-11-12T22:58:51.373Z,13.20
2022-11-12T23:01:37.342Z,13.18
2022-11-12T23:04:23.540Z,13.15
2022-11-12T23:07:09.306Z,13.19
2022-11-12T23:09:55.091Z,13.03
2022-11-12T23:12:40.807Z,13.11
2022-11-12T23:15:29.621Z,13.15
2022-11-12T23:18:15.496Z,13.12
2022-11-12T23:21:05.259Z,13.18
2022-11-12T23:23:51.014Z,13.14
2022-11-12T23:26:36.732Z,13.16
2022-11-12T23:29:22.509Z,13.20
2022-11-12T23:32:08.243Z,13.13
2022-11-12T23:34:54.048Z,13.06
2022-11-12T23:37:39.804Z,12.99
2022-11-12T23:40:30.724Z,12.78
2022-11-12T23:43:17.087Z,12.49
2022-11-12T23:46:02.929Z,12.11
2022-11-12T23:48:48.624Z,12.24
2022-11-12T23:51:34.013Z,12.26
2022-11-12T23:54:19.792Z,12.05
2022-11-12T23:57:05.812Z,11.66
2022-11-12T23:59:52.135Z,11.84
